Time;durP1;ratioP1;P1;durP2;ratioP2;P2;SDS_P1;SDS_P2;PMS_P1;PMS_P2;Temp;Humidity;BMP_temperature;BMP_pressure;BME280_temperature;BME280_humidity;BME280_pressure;Samples;Min_cycle;Max_cycle;Signal;HPM_P1;HPM_P2
2023/12/17 00:01:07;;;;;;;10.20;7.30;;;;;;;;;;5040175;28;20447;-70
2023/12/17 00:03:36;;;;;;;10.90;7.78;;;;;;;;;;5034993;28;20427;-70
2023/12/17 00:06:03;;;;;;;11.55;7.45;;;;;;;;;;5039679;28;20955;-70
2023/12/17 00:08:30;;;;;;;10.68;7.10;;;;;;;;;;5040191;28;20433;-70
2023/12/17 00:10:57;;;;;;;12.23;8.00;;;;;;;;;;5045382;28;20432;-70
2023/12/17 00:13:24;;;;;;;9.93;7.05;;;;;;;;;;5049438;28;20425;-70
2023/12/17 00:15:51;;;;;;;11.90;8.02;;;;;;;;;;5043657;28;20460;-70
2023/12/17 00:18:18;;;;;;;11.40;7.50;;;;;;;;;;5045225;28;20433;-70
2023/12/17 00:20:47;;;;;;;13.45;8.20;;;;;;;;;;5046079;28;20409;-69
2023/12/17 00:23:14;;;;;;;10.43;6.97;;;;;;;;;;5038168;28;20417;-71
2023/12/17 00:25:41;;;;;;;8.68;6.65;;;;;;;;;;5046165;28;20428;-70
2023/12/17 00:28:08;;;;;;;8.40;6.63;;;;;;;;;;5049751;28;20447;-70
2023/12/17 00:30:35;;;;;;;10.10;6.95;;;;;;;;;;5043636;28;20451;-70
2023/12/17 00:33:02;;;;;;;10.52;7.18;;;;;;;;;;5044739;28;20522;-70
2023/12/17 00:35:29;;;;;;;11.07;7.40;;;;;;;;;;5040062;28;20440;-70
2023/12/17 00:37:58;;;;;;;7.80;6.50;;;;;;;;;;5043212;28;20876;-70
2023/12/17 00:40:25;;;;;;;9.98;6.90;;;;;;;;;;5030683;28;20912;-70
2023/12/17 00:42:52;;;;;;;10.00;6.90;;;;;;;;;;5042100;28;20436;-70
2023/12/17 00:45:19;;;;;;;9.55;6.60;;;;;;;;;;5044672;28;20803;-70
2023/12/17 00:47:46;;;;;;;9.13;6.40;;;;;;;;;;5044656;28;20428;-70
2023/12/17 00:50:13;;;;;;;7.82;5.80;;;;;;;;;;5043577;28;20436;-70
2023/12/17 00:52:40;;;;;;;9.45;5.50;;;;;;;;;;5043735;28;20433;-70
2023/12/17 00:55:09;;;;;;;9.93;6.30;;;;;;;;;;5043767;28;20425;-71
2023/12/17 00:57:36;;;;;;;8.88;5.93;;;;;;;;;;5043759;28;20894;-70
2023/12/17 01:00:04;;;;;;;8.57;5.57;;;;;;;;;;5047128;28;20548;-70
2023/12/17 01:02:31;;;;;;;10.17;6.03;;;;;;;;;;5044555;28;20494;-70
2023/12/17 01:04:58;;;;;;;8.20;5.43;;;;;;;;;;5044147;28;20409;-71
2023/12/17 01:07:25;;;;;;;9.13;5.70;;;;;;;;;;5042390;28;20440;-70
2023/12/17 01:09:52;;;;;;;7.43;5.97;;;;;;;;;;5038386;28;20429;-70
2023/12/17 01:12:20;;;;;;;7.90;5.43;;;;;;;;;;5037599;28;20429;-71
2023/12/17 01:14:47;;;;;;;5.82;4.70;;;;;;;;;;5044930;28;20429;-70
2023/12/17 01:17:14;;;;;;;7.15;5.22;;;;;;;;;;5038525;28;20428;-70
2023/12/17 01:19:41;;;;;;;6.75;5.22;;;;;;;;;;5042713;28;20757;-70
2023/12/17 01:22:08;;;;;;;6.50;4.57;;;;;;;;;;5043023;28;20457;-70
2023/12/17 01:24:35;;;;;;;6.28;5.30;;;;;;;;;;5036327;28;20417;-71
2023/12/17 01:27:02;;;;;;;9.60;4.85;;;;;;;;;;5034954;28;20919;-71
2023/12/17 01:29:31;;;;;;;5.40;4.50;;;;;;;;;;5043689;28;20503;-70
2023/12/17 01:31:58;;;;;;;7.15;4.95;;;;;;;;;;5044153;28;20410;-71
2023/12/17 01:34:25;;;;;;;5.30;4.80;;;;;;;;;;5042906;28;20409;-70
2023/12/17 01:36:53;;;;;;;6.65;5.95;;;;;;;;;;5041784;28;20917;-70
2023/12/17 01:39:20;;;;;;;6.82;5.20;;;;;;;;;;5042733;28;20445;-70
2023/12/17 01:41:47;;;;;;;7.20;5.50;;;;;;;;;;5044491;28;20501;-70
2023/12/17 01:44:14;;;;;;;7.18;6.03;;;;;;;;;;5043713;28;20738;-71
2023/12/17 01:46:42;;;;;;;7.72;6.30;;;;;;;;;;5042360;28;20495;-70
2023/12/17 01:49:09;;;;;;;7.40;5.78;;;;;;;;;;5042563;28;20442;-71
2023/12/17 01:51:37;;;;;;;6.40;5.55;;;;;;;;;;5042400;28;20437;-70
2023/12/17 01:54:04;;;;;;;7.28;5.70;;;;;;;;;;5039511;28;20432;-71
2023/12/17 01:56:31;;;;;;;6.28;5.30;;;;;;;;;;5044171;28;20428;-69
2023/12/17 01:58:58;;;;;;;5.90;4.85;;;;;;;;;;5041471;28;20750;-71
2023/12/17 02:01:25;;;;;;;6.18;4.53;;;;;;;;;;5043855;28;20437;-70
2023/12/17 02:03:54;;;;;;;6.78;4.10;;;;;;;;;;5036753;28;20425;-70
2023/12/17 02:06:21;;;;;;;5.50;4.40;;;;;;;;;;5043041;28;20497;-70
2023/12/17 02:08:47;;;;;;;5.90;4.90;;;;;;;;;;5042011;28;20459;-70
2023/12/17 02:11:14;;;;;;;6.27;4.40;;;;;;;;;;5039736;28;20422;-70
2023/12/17 02:13:41;;;;;;;5.68;4.50;;;;;;;;;;5030936;28;20432;-70
2023/12/17 02:16:09;;;;;;;5.68;4.40;;;;;;;;;;5042122;28;20424;-70
2023/12/17 02:18:36;;;;;;;4.93;3.80;;;;;;;;;;5042097;28;20516;-70
2023/12/17 02:21:05;;;;;;;5.55;4.50;;;;;;;;;;5040670;28;20409;-70
2023/12/17 02:23:33;;;;;;;7.65;4.57;;;;;;;;;;5042765;28;20433;-70
2023/12/17 02:26:03;;;;;;;5.32;4.20;;;;;;;;;;5040124;28;20423;-70
2023/12/17 02:28:30;;;;;;;5.18;4.22;;;;;;;;;;5042902;28;20417;-70
2023/12/17 02:30:57;;;;;;;5.28;4.38;;;;;;;;;;5054526;28;20437;-71
2023/12/17 02:33:24;;;;;;;4.90;4.10;;;;;;;;;;5042569;28;20437;-70
2023/12/17 02:35:51;;;;;;;6.30;4.60;;;;;;;;;;5042790;28;20424;-71
2023/12/17 02:38:18;;;;;;;6.50;4.60;;;;;;;;;;5035405;28;20497;-70
2023/12/17 02:40:46;;;;;;;4.97;4.45;;;;;;;;;;5042601;28;20536;-70
2023/12/17 02:43:14;;;;;;;4.65;4.10;;;;;;;;;;5042035;28;20447;-70
2023/12/17 02:45:41;;;;;;;5.50;4.60;;;;;;;;;;5041501;28;20433;-70
2023/12/17 02:48:08;;;;;;;6.45;4.78;;;;;;;;;;5039448;28;20433;-70
2023/12/17 02:50:35;;;;;;;5.68;4.50;;;;;;;;;;5041517;28;20994;-71
2023/12/17 02:53:02;;;;;;;6.45;5.03;;;;;;;;;;5041677;28;20524;-70
2023/12/17 02:55:29;;;;;;;8.20;5.50;;;;;;;;;;5042604;28;20447;-70
2023/12/17 02:57:57;;;;;;;7.75;5.90;;;;;;;;;;5041847;28;20424;-71
2023/12/17 03:00:24;;;;;;;8.73;5.40;;;;;;;;;;5041939;28;21108;-71
2023/12/17 03:02:51;;;;;;;8.32;6.22;;;;;;;;;;5041060;28;20439;-71
2023/12/17 03:05:18;;;;;;;7.33;5.17;;;;;;;;;;5035561;28;20737;-70
2023/12/17 03:07:45;;;;;;;8.77;6.03;;;;;;;;;;5040010;28;20440;-71
2023/12/17 03:10:12;;;;;;;6.72;5.60;;;;;;;;;;5045592;28;20417;-70
2023/12/17 03:12:39;;;;;;;7.20;5.20;;;;;;;;;;5045483;28;20420;-70
2023/12/17 03:15:09;;;;;;;8.27;5.25;;;;;;;;;;5042395;28;20420;-70
2023/12/17 03:17:36;;;;;;;6.80;5.47;;;;;;;;;;5036258;28;21180;-70
2023/12/17 03:20:05;;;;;;;9.05;5.00;;;;;;;;;;5039693;28;20498;-70
2023/12/17 03:22:32;;;;;;;8.20;5.43;;;;;;;;;;5041664;28;20429;-70
2023/12/17 03:25:00;;;;;;;6.93;5.35;;;;;;;;;;5041529;28;20438;-71
2023/12/17 03:27:28;;;;;;;7.90;5.00;;;;;;;;;;5041868;28;20421;-70
2023/12/17 03:29:55;;;;;;;7.00;5.30;;;;;;;;;;5039582;28;20433;-71
2023/12/17 03:32:23;;;;;;;8.20;5.05;;;;;;;;;;5042059;28;20884;-71
2023/12/17 03:34:50;;;;;;;6.97;5.10;;;;;;;;;;5039731;28;20605;-70
2023/12/17 03:37:17;;;;;;;7.82;5.03;;;;;;;;;;5041804;28;20487;-70
2023/12/17 03:39:44;;;;;;;6.88;4.72;;;;;;;;;;5041638;28;20417;-70
2023/12/17 03:42:11;;;;;;;7.20;5.38;;;;;;;;;;5042542;28;20416;-70
2023/12/17 03:44:38;;;;;;;7.45;5.70;;;;;;;;;;5044931;28;20492;-70
2023/12/17 03:47:06;;;;;;;6.80;5.20;;;;;;;;;;5045540;28;20413;-70
2023/12/17 03:49:34;;;;;;;8.35;5.22;;;;;;;;;;5045835;28;20419;-70
2023/12/17 03:52:03;;;;;;;7.80;5.28;;;;;;;;;;5044645;28;20504;-70
2023/12/17 03:54:30;;;;;;;5.40;4.88;;;;;;;;;;5040871;28;20444;-71
2023/12/17 03:56:57;;;;;;;6.18;5.28;;;;;;;;;;5046005;28;20427;-70
2023/12/17 03:59:24;;;;;;;8.40;6.53;;;;;;;;;;5044675;28;20429;-70
2023/12/17 04:01:51;;;;;;;6.72;5.57;;;;;;;;;;5046897;28;20488;-70
2023/12/17 04:04:18;;;;;;;7.15;5.63;;;;;;;;;;5041966;28;20434;-71
2023/12/17 04:06:47;;;;;;;7.72;5.95;;;;;;;;;;5040367;28;20895;-70
2023/12/17 04:09:14;;;;;;;6.68;5.30;;;;;;;;;;5044901;28;20417;-70
2023/12/17 04:11:41;;;;;;;6.90;5.27;;;;;;;;;;5043710;28;20425;-70
2023/12/17 04:14:08;;;;;;;8.25;6.00;;;;;;;;;;5044990;28;20532;-71
2023/12/17 04:16:34;;;;;;;7.05;5.57;;;;;;;;;;5045598;28;20409;-70
2023/12/17 04:19:01;;;;;;;7.72;5.57;;;;;;;;;;5044346;28;20486;-70
2023/12/17 04:21:28;;;;;;;6.22;5.50;;;;;;;;;;5044593;28;20433;-72
2023/12/17 04:23:57;;;;;;;5.63;4.80;;;;;;;;;;5045725;28;20420;-70
2023/12/17 04:26:24;;;;;;;7.18;5.20;;;;;;;;;;5043924;28;20429;-70
2023/12/17 04:28:51;;;;;;;4.60;4.20;;;;;;;;;;5046673;28;20413;-70
2023/12/17 04:31:18;;;;;;;4.82;3.90;;;;;;;;;;5044785;28;20428;-71
2023/12/17 04:33:45;;;;;;;4.30;3.80;;;;;;;;;;5045477;28;20441;-70
2023/12/17 04:36:12;;;;;;;4.30;3.80;;;;;;;;;;5042319;28;20433;-70
2023/12/17 04:38:41;;;;;;;3.70;3.40;;;;;;;;;;5044985;28;20437;-70
2023/12/17 04:41:09;;;;;;;5.47;4.45;;;;;;;;;;5044802;28;20848;-71
2023/12/17 04:43:36;;;;;;;4.90;4.30;;;;;;;;;;5044163;28;20756;-71
2023/12/17 04:46:03;;;;;;;5.30;4.18;;;;;;;;;;5045411;28;20930;-70
2023/12/17 04:48:31;;;;;;;5.90;4.77;;;;;;;;;;5046404;28;20505;-71
2023/12/17 04:50:58;;;;;;;4.50;4.10;;;;;;;;;;5044020;28;20768;-70
2023/12/17 04:53:25;;;;;;;4.75;4.28;;;;;;;;;;5040848;28;20930;-70
2023/12/17 04:55:52;;;;;;;4.57;4.10;;;;;;;;;;5041806;28;20409;-70
2023/12/17 04:58:20;;;;;;;4.60;4.10;;;;;;;;;;5039672;28;20504;-70
2023/12/17 05:00:47;;;;;;;4.80;4.10;;;;;;;;;;5045170;28;20897;-70
2023/12/17 05:03:14;;;;;;;5.10;4.20;;;;;;;;;;5044852;28;20500;-70
2023/12/17 05:05:41;;;;;;;5.70;4.00;;;;;;;;;;5041668;28;20433;-70
2023/12/17 05:08:08;;;;;;;4.70;3.90;;;;;;;;;;5045060;28;20413;-70
2023/12/17 05:10:36;;;;;;;5.22;4.72;;;;;;;;;;5044613;28;20417;-72
2023/12/17 05:13:03;;;;;;;4.82;4.30;;;;;;;;;;5047900;28;20435;-70
2023/12/17 05:15:31;;;;;;;6.90;5.80;;;;;;;;;;5056676;28;20433;-70
2023/12/17 05:17:58;;;;;;;6.20;5.60;;;;;;;;;;5045722;28;20448;-70
2023/12/17 05:20:25;;;;;;;5.75;5.22;;;;;;;;;;5046081;28;21071;-70
2023/12/17 05:22:52;;;;;;;6.05;5.30;;;;;;;;;;5050300;28;21131;-70
2023/12/17 05:25:19;;;;;;;6.55;5.95;;;;;;;;;;5053934;28;20413;-70
2023/12/17 05:27:46;;;;;;;5.80;5.13;;;;;;;;;;5045173;28;20433;-70
2023/12/17 05:30:14;;;;;;;8.17;6.20;;;;;;;;;;5044682;28;20430;-70
2023/12/17 05:32:42;;;;;;;6.15;5.55;;;;;;;;;;5035285;28;20411;-70
2023/12/17 05:35:10;;;;;;;6.82;5.28;;;;;;;;;;5042050;28;20507;-70
2023/12/17 05:37:37;;;;;;;6.10;5.20;;;;;;;;;;5043892;28;20421;-71
2023/12/17 05:40:06;;;;;;;7.18;5.20;;;;;;;;;;5043243;28;20451;-70
2023/12/17 05:42:34;;;;;;;9.02;6.93;;;;;;;;;;5044201;28;20744;-71
2023/12/17 05:45:01;;;;;;;8.73;6.80;;;;;;;;;;5043577;28;20752;-70
2023/12/17 05:47:28;;;;;;;9.43;6.47;;;;;;;;;;5041607;28;21030;-70
2023/12/17 05:49:57;;;;;;;7.80;5.93;;;;;;;;;;5040258;28;20474;-70
2023/12/17 05:52:24;;;;;;;7.10;5.50;;;;;;;;;;5042893;28;20440;-70
2023/12/17 05:54:51;;;;;;;6.70;5.30;;;;;;;;;;5039087;28;20919;-70
2023/12/17 05:57:18;;;;;;;6.93;6.00;;;;;;;;;;5042992;28;20516;-70
2023/12/17 05:59:45;;;;;;;8.57;5.55;;;;;;;;;;5041741;28;20429;-71
2023/12/17 06:02:12;;;;;;;5.60;5.00;;;;;;;;;;5041797;28;20436;-70
2023/12/17 06:04:39;;;;;;;5.63;5.00;;;;;;;;;;5043776;28;20414;-70
2023/12/17 06:07:07;;;;;;;7.30;5.03;;;;;;;;;;5041719;28;20455;-70
2023/12/17 06:09:34;;;;;;;6.97;5.30;;;;;;;;;;5044581;28;20418;-70
2023/12/17 06:12:01;;;;;;;5.95;5.35;;;;;;;;;;5036809;28;20433;-70
2023/12/17 06:14:28;;;;;;;6.35;5.30;;;;;;;;;;5045195;28;20947;-70
2023/12/17 06:16:56;;;;;;;6.27;5.60;;;;;;;;;;5042702;28;21117;-70
2023/12/17 06:19:23;;;;;;;6.15;5.55;;;;;;;;;;5037615;28;20413;-70
2023/12/17 06:21:50;;;;;;;5.80;4.87;;;;;;;;;;5043579;28;20834;-70
2023/12/17 06:24:18;;;;;;;5.70;5.00;;;;;;;;;;5044496;28;20440;-70
2023/12/17 06:26:45;;;;;;;6.28;4.60;;;;;;;;;;5044519;28;20439;-72
2023/12/17 06:29:14;;;;;;;6.40;5.00;;;;;;;;;;5043242;28;20425;-70
2023/12/17 06:31:41;;;;;;;5.30;4.80;;;;;;;;;;5043727;28;20455;-69
2023/12/17 06:34:08;;;;;;;6.00;5.37;;;;;;;;;;5044491;28;20521;-70
2023/12/17 06:36:35;;;;;;;5.90;4.70;;;;;;;;;;5044127;28;20748;-69
2023/12/17 06:39:02;;;;;;;4.95;4.30;;;;;;;;;;5043761;28;20462;-70
2023/12/17 06:41:31;;;;;;;5.88;4.82;;;;;;;;;;5056740;28;20428;-72
2023/12/17 06:43:58;;;;;;;5.35;4.50;;;;;;;;;;5048213;28;20436;-70
2023/12/17 06:46:25;;;;;;;5.20;4.70;;;;;;;;;;5046856;28;20448;-69
2023/12/17 06:48:52;;;;;;;5.95;4.57;;;;;;;;;;5045235;28;20436;-69
2023/12/17 06:51:19;;;;;;;5.13;4.63;;;;;;;;;;5045270;28;20421;-69
2023/12/17 06:53:46;;;;;;;5.00;4.50;;;;;;;;;;5040129;28;20424;-69
2023/12/17 06:56:14;;;;;;;5.25;4.13;;;;;;;;;;5043277;28;20413;-69
2023/12/17 06:58:42;;;;;;;5.80;5.20;;;;;;;;;;5042949;28;20413;-69
2023/12/17 07:01:09;;;;;;;5.10;4.50;;;;;;;;;;5040375;28;20433;-69
2023/12/17 07:03:36;;;;;;;5.00;4.50;;;;;;;;;;5062436;22;20441;-71
2023/12/17 07:06:03;;;;;;;4.93;3.92;;;;;;;;;;5037855;28;20429;-72
2023/12/17 07:08:30;;;;;;;5.60;4.30;;;;;;;;;;5038300;28;20896;-71
2023/12/17 07:10:58;;;;;;;5.80;5.20;;;;;;;;;;5036725;28;20910;-71
2023/12/17 07:13:25;;;;;;;6.88;5.45;;;;;;;;;;5046782;28;20417;-70
2023/12/17 07:15:53;;;;;;;6.00;5.40;;;;;;;;;;5041206;28;20811;-69
2023/12/17 07:18:20;;;;;;;5.93;5.32;;;;;;;;;;5030001;28;20732;-69
2023/12/17 07:20:47;;;;;;;6.18;5.57;;;;;;;;;;5038054;28;20413;-69
2023/12/17 07:23:14;;;;;;;6.85;5.60;;;;;;;;;;5038017;28;20415;-69
2023/12/17 07:25:41;;;;;;;6.70;5.32;;;;;;;;;;5042743;28;20425;-70
2023/12/17 07:28:08;;;;;;;6.78;5.45;;;;;;;;;;5038417;28;20417;-71
2023/12/17 07:30:36;;;;;;;5.75;4.93;;;;;;;;;;5044264;28;20444;-71
2023/12/17 07:33:06;;;;;;;5.60;5.00;;;;;;;;;;5044843;28;20429;-70
2023/12/17 07:35:33;;;;;;;5.90;5.30;;;;;;;;;;5039717;28;20432;-70
2023/12/17 07:38:00;;;;;;;5.30;4.38;;;;;;;;;;5042824;28;20435;-71
2023/12/17 07:40:27;;;;;;;6.00;5.10;;;;;;;;;;5037305;28;20435;-70
2023/12/17 07:42:54;;;;;;;7.10;4.93;;;;;;;;;;5035010;28;20491;-71
2023/12/17 07:45:21;;;;;;;6.18;5.57;;;;;;;;;;5033285;28;22594;-71
2023/12/17 07:47:48;;;;;;;6.73;5.20;;;;;;;;;;5039693;28;21002;-70
2023/12/17 07:50:17;;;;;;;5.80;5.20;;;;;;;;;;5041604;28;20443;-72
2023/12/17 07:52:44;;;;;;;8.10;5.57;;;;;;;;;;5041926;28;20928;-70
2023/12/17 07:55:11;;;;;;;5.03;4.53;;;;;;;;;;5044341;28;20440;-70
2023/12/17 07:57:38;;;;;;;5.20;4.70;;;;;;;;;;5038978;28;20921;-70
2023/12/17 08:00:07;;;;;;;5.22;4.40;;;;;;;;;;5037819;28;20437;-70
2023/12/17 08:02:35;;;;;;;5.40;4.70;;;;;;;;;;5040619;28;20440;-70
2023/12/17 08:05:02;;;;;;;5.60;5.10;;;;;;;;;;5042883;28;20622;-70
2023/12/17 08:07:31;;;;;;;4.53;4.07;;;;;;;;;;5038290;28;20845;-70
2023/12/17 08:09:58;;;;;;;5.03;4.53;;;;;;;;;;5045919;28;20459;-71
2023/12/17 08:12:25;;;;;;;5.33;4.83;;;;;;;;;;5044611;28;20481;-71
2023/12/17 08:14:52;;;;;;;5.18;4.22;;;;;;;;;;5046130;28;20430;-71
2023/12/17 08:17:19;;;;;;;5.20;4.70;;;;;;;;;;5039681;28;20422;-70
2023/12/17 08:19:46;;;;;;;5.05;4.20;;;;;;;;;;5039278;28;20436;-71
2023/12/17 08:22:13;;;;;;;5.70;4.30;;;;;;;;;;5041914;28;20626;-71
2023/12/17 08:24:41;;;;;;;4.40;4.00;;;;;;;;;;5028046;28;20429;-71
2023/12/17 08:27:09;;;;;;;4.60;4.20;;;;;;;;;;5034893;28;20425;-70
2023/12/17 08:29:36;;;;;;;4.60;4.20;;;;;;;;;;5037927;28;20965;-71
2023/12/17 08:32:03;;;;;;;4.33;3.93;;;;;;;;;;5038990;28;20438;-71
2023/12/17 08:34:31;;;;;;;5.00;4.50;;;;;;;;;;5043166;28;20923;-71
2023/12/17 08:36:58;;;;;;;4.50;4.10;;;;;;;;;;5045093;28;20499;-70
2023/12/17 08:39:26;;;;;;;4.47;3.90;;;;;;;;;;5042414;28;20444;-69
2023/12/17 08:41:55;;;;;;;5.05;4.20;;;;;;;;;;5042653;28;20461;-70
2023/12/17 08:44:25;;;;;;;4.10;3.70;;;;;;;;;;5042952;28;20485;-70
2023/12/17 08:46:52;;;;;;;4.10;3.70;;;;;;;;;;5038329;28;20864;-70
2023/12/17 08:49:20;;;;;;;4.60;4.20;;;;;;;;;;5045744;28;20449;-72
2023/12/17 08:51:47;;;;;;;4.30;3.90;;;;;;;;;;5046155;28;20831;-70
2023/12/17 08:54:14;;;;;;;4.50;3.85;;;;;;;;;;5040312;28;20442;-70
2023/12/17 08:56:41;;;;;;;4.07;3.67;;;;;;;;;;5037639;28;20437;-71
2023/12/17 08:59:10;;;;;;;4.18;3.72;;;;;;;;;;5036121;28;20435;-70
2023/12/17 09:01:37;;;;;;;4.85;4.13;;;;;;;;;;5039272;28;21756;-69
2023/12/17 09:04:04;;;;;;;5.15;4.20;;;;;;;;;;5040956;28;20437;-70
2023/12/17 09:06:31;;;;;;;4.82;4.20;;;;;;;;;;5039978;28;20409;-70
2023/12/17 09:08:58;;;;;;;4.70;4.20;;;;;;;;;;5045866;28;20429;-70
2023/12/17 09:11:24;;;;;;;4.28;3.88;;;;;;;;;;5033237;28;20440;-70
2023/12/17 09:13:51;;;;;;;4.65;4.25;;;;;;;;;;5043983;28;20425;-71
2023/12/17 09:16:20;;;;;;;5.00;4.27;;;;;;;;;;5037522;28;21295;-71
2023/12/17 09:18:47;;;;;;;4.80;4.15;;;;;;;;;;5044849;28;20950;-70
2023/12/17 09:21:14;;;;;;;4.55;3.80;;;;;;;;;;5037106;28;20433;-69
2023/12/17 09:23:41;;;;;;;4.10;3.58;;;;;;;;;;5043017;28;20410;-70
2023/12/17 09:26:08;;;;;;;4.60;4.20;;;;;;;;;;5030637;28;20422;-70
2023/12/17 09:28:35;;;;;;;4.97;4.40;;;;;;;;;;5042102;28;20435;-70
2023/12/17 09:31:02;;;;;;;5.30;4.80;;;;;;;;;;5041715;28;20441;-70
2023/12/17 09:33:34;;;;;;;5.55;5.05;;;;;;;;;;5040911;28;20438;-69
2023/12/17 09:36:02;;;;;;;5.20;4.70;;;;;;;;;;5036762;28;20519;-70
2023/12/17 09:38:29;;;;;;;4.85;4.30;;;;;;;;;;5042840;28;20880;-71
2023/12/17 09:40:56;;;;;;;5.22;4.72;;;;;;;;;;5037049;28;20432;-68
2023/12/17 09:43:24;;;;;;;5.03;4.53;;;;;;;;;;5043245;28;20429;-68
2023/12/17 09:45:52;;;;;;;5.15;4.65;;;;;;;;;;5041184;28;20465;-68
2023/12/17 09:48:19;;;;;;;5.60;5.10;;;;;;;;;;5045584;28;20898;-69
2023/12/17 09:50:47;;;;;;;5.20;4.70;;;;;;;;;;5038698;28;20919;-71
2023/12/17 09:53:14;;;;;;;5.80;5.30;;;;;;;;;;5032909;28;20437;-70
2023/12/17 09:55:41;;;;;;;6.70;6.10;;;;;;;;;;5032103;28;20429;-68
2023/12/17 09:58:09;;;;;;;6.70;6.13;;;;;;;;;;5036107;28;20524;-67
2023/12/17 10:00:36;;;;;;;6.13;5.50;;;;;;;;;;5034118;28;20425;-67
2023/12/17 10:03:04;;;;;;;6.80;6.10;;;;;;;;;;5033629;28;20970;-68
2023/12/17 10:05:31;;;;;;;7.00;6.40;;;;;;;;;;5032583;28;20616;-67
2023/12/17 10:08:00;;;;;;;6.60;6.00;;;;;;;;;;5040258;28;22253;-69
2023/12/17 10:10:27;;;;;;;5.75;5.25;;;;;;;;;;5035850;28;20437;-68
2023/12/17 10:12:54;;;;;;;5.90;5.40;;;;;;;;;;5034566;28;20563;-70
2023/12/17 10:15:21;;;;;;;6.20;5.60;;;;;;;;;;5032844;28;20511;-68
2023/12/17 10:17:49;;;;;;;6.05;5.50;;;;;;;;;;5035334;28;20436;-69
2023/12/17 10:20:19;;;;;;;7.20;6.60;;;;;;;;;;5034345;28;20432;-68
2023/12/17 10:22:57;;;;;;;7.20;6.53;;;;;;;;;;5035676;28;20506;-69
2023/12/17 10:25:26;;;;;;;7.60;7.00;;;;;;;;;;5031839;28;20442;-69
2023/12/17 10:27:55;;;;;;;6.70;6.20;;;;;;;;;;5035793;28;20441;-67
2023/12/17 10:30:23;;;;;;;6.28;5.78;;;;;;;;;;5034788;28;20917;-70
2023/12/17 10:32:50;;;;;;;6.10;5.60;;;;;;;;;;5037665;28;20876;-69
2023/12/17 10:35:17;;;;;;;5.75;5.28;;;;;;;;;;5038772;28;20433;-69
2023/12/17 10:37:45;;;;;;;5.63;5.13;;;;;;;;;;5036040;28;20440;-69
2023/12/17 10:40:12;;;;;;;5.60;5.10;;;;;;;;;;5037871;28;20425;-70
2023/12/17 10:42:41;;;;;;;5.45;4.95;;;;;;;;;;5036947;28;20482;-70
2023/12/17 10:45:11;;;;;;;5.03;4.53;;;;;;;;;;5036272;28;20437;-70
2023/12/17 10:47:39;;;;;;;5.20;4.80;;;;;;;;;;5032179;28;20833;-69
2023/12/17 10:50:06;;;;;;;5.35;4.95;;;;;;;;;;5035391;28;20456;-67
2023/12/17 10:52:34;;;;;;;4.55;4.15;;;;;;;;;;5034451;28;20433;-67
2023/12/17 10:55:02;;;;;;;4.60;4.20;;;;;;;;;;5034396;28;20433;-69
2023/12/17 10:57:29;;;;;;;5.05;4.50;;;;;;;;;;5032462;28;20481;-68
2023/12/17 10:59:58;;;;;;;4.18;3.78;;;;;;;;;;5034583;28;20441;-70
2023/12/17 11:02:27;;;;;;;4.38;3.97;;;;;;;;;;5035478;28;20426;-69
2023/12/17 11:04:56;;;;;;;4.03;3.60;;;;;;;;;;5034984;28;20433;-70
2023/12/17 11:07:24;;;;;;;4.28;3.88;;;;;;;;;;5037898;28;20436;-69
2023/12/17 11:09:51;;;;;;;4.65;4.25;;;;;;;;;;5036031;28;20456;-72
2023/12/17 11:12:18;;;;;;;4.50;4.07;;;;;;;;;;5035941;28;20903;-73
2023/12/17 11:14:46;;;;;;;3.90;3.60;;;;;;;;;;5036308;28;20995;-73
2023/12/17 11:17:15;;;;;;;4.20;3.90;;;;;;;;;;5034387;28;20444;-71
2023/12/17 11:19:56;;;;;;;3.53;3.22;;;;;;;;;;5036927;28;20514;-73
2023/12/17 11:22:23;;;;;;;3.80;3.50;;;;;;;;;;5037284;28;21322;-72
2023/12/17 11:24:50;;;;;;;3.97;3.67;;;;;;;;;;5037643;28;20441;-71
2023/12/17 11:27:22;;;;;;;4.15;3.85;;;;;;;;;;5037059;28;20432;-72
2023/12/17 11:29:49;;;;;;;4.18;3.88;;;;;;;;;;5037610;28;20510;-71
2023/12/17 11:32:18;;;;;;;4.47;4.07;;;;;;;;;;5036870;28;20425;-72
2023/12/17 11:34:48;;;;;;;4.13;3.72;;;;;;;;;;5043431;28;20433;-71
2023/12/17 11:37:17;;;;;;;4.80;4.40;;;;;;;;;;5037319;28;20425;-72
2023/12/17 11:39:45;;;;;;;4.93;4.53;;;;;;;;;;5036435;28;20478;-72
2023/12/17 11:42:12;;;;;;;4.72;4.32;;;;;;;;;;5035913;28;20819;-72
2023/12/17 11:44:43;;;;;;;4.43;4.13;;;;;;;;;;5037514;28;20965;-72
2023/12/17 11:47:10;;;;;;;5.05;4.65;;;;;;;;;;5035853;28;21746;-73
2023/12/17 11:49:39;;;;;;;4.90;4.35;;;;;;;;;;5037884;28;20444;-73
2023/12/17 11:52:11;;;;;;;4.50;4.20;;;;;;;;;;5035722;28;20433;-72
2023/12/17 11:54:38;;;;;;;4.60;4.20;;;;;;;;;;5032455;28;20449;-71
2023/12/17 11:57:05;;;;;;;4.80;4.40;;;;;;;;;;5032750;28;20429;-73
2023/12/17 11:59:32;;;;;;;4.40;4.10;;;;;;;;;;5034222;28;20832;-73
2023/12/17 12:02:00;;;;;;;4.60;4.20;;;;;;;;;;5033750;28;20417;-72
2023/12/17 12:04:27;;;;;;;4.50;4.20;;;;;;;;;;5037977;28;20805;-73
2023/12/17 12:06:55;;;;;;;5.22;4.70;;;;;;;;;;5041996;28;20436;-73
2023/12/17 12:09:22;;;;;;;4.97;4.57;;;;;;;;;;5040382;28;20526;-73
2023/12/17 12:11:49;;;;;;;4.68;4.28;;;;;;;;;;5034879;28;20435;-73
2023/12/17 12:14:16;;;;;;;4.50;4.10;;;;;;;;;;5043684;28;20448;-73
2023/12/17 12:16:44;;;;;;;4.75;4.35;;;;;;;;;;5045708;28;20429;-73
2023/12/17 12:19:11;;;;;;;4.75;4.35;;;;;;;;;;5040568;28;20438;-71
2023/12/17 12:21:38;;;;;;;4.20;3.90;;;;;;;;;;5047855;28;20460;-72
2023/12/17 12:24:10;;;;;;;4.50;4.10;;;;;;;;;;5047199;28;20919;-71
2023/12/17 12:26:37;;;;;;;4.60;4.20;;;;;;;;;;5042646;28;20784;-73
2023/12/17 12:29:06;;;;;;;3.80;3.50;;;;;;;;;;5042297;28;20480;-73
2023/12/17 12:31:34;;;;;;;3.85;3.55;;;;;;;;;;5039649;28;20438;-72
2023/12/17 12:34:01;;;;;;;3.63;3.30;;;;;;;;;;5034921;28;20441;-73
2023/12/17 12:36:43;;;;;;;3.33;3.08;;;;;;;;;;5041266;28;20534;-73
2023/12/17 12:39:11;;;;;;;3.40;3.10;;;;;;;;;;5045890;28;20432;-73
2023/12/17 12:41:43;;;;;;;3.50;3.20;;;;;;;;;;5048903;28;20437;-72
2023/12/17 12:44:12;;;;;;;4.65;3.20;;;;;;;;;;5040358;28;20443;-72
2023/12/17 12:46:40;;;;;;;3.60;3.30;;;;;;;;;;5040081;28;20429;-72
2023/12/17 12:49:07;;;;;;;3.30;3.00;;;;;;;;;;5040518;28;20512;-72
2023/12/17 12:51:34;;;;;;;3.83;3.53;;;;;;;;;;5033676;28;20538;-73
2023/12/17 12:54:03;;;;;;;3.60;3.30;;;;;;;;;;5045685;28;20433;-75
2023/12/17 12:56:31;;;;;;;3.23;2.93;;;;;;;;;;5047065;28;20444;-72
2023/12/17 12:58:58;;;;;;;4.00;3.60;;;;;;;;;;5041918;28;20426;-73
2023/12/17 13:01:25;;;;;;;3.40;2.90;;;;;;;;;;5063309;28;20432;-73
2023/12/17 13:03:53;;;;;;;3.30;3.00;;;;;;;;;;5057533;28;20448;-73
2023/12/17 13:06:20;;;;;;;3.40;2.80;;;;;;;;;;5043320;28;20423;-73
2023/12/17 13:08:47;;;;;;;3.50;3.00;;;;;;;;;;5046447;28;20433;-73
2023/12/17 13:11:14;;;;;;;2.83;2.63;;;;;;;;;;5047297;28;20433;-73
2023/12/17 13:13:43;;;;;;;3.03;2.83;;;;;;;;;;5044980;28;20429;-73
2023/12/17 13:16:10;;;;;;;2.78;2.58;;;;;;;;;;5046604;28;20429;-73
2023/12/17 13:18:37;;;;;;;3.20;2.90;;;;;;;;;;5046188;28;20443;-74
2023/12/17 13:21:04;;;;;;;2.90;2.70;;;;;;;;;;5046372;28;20428;-74
2023/12/17 13:23:31;;;;;;;2.80;2.60;;;;;;;;;;5038173;28;20431;-74
2023/12/17 13:25:58;;;;;;;3.60;2.90;;;;;;;;;;5038739;28;20457;-76
2023/12/17 13:28:25;;;;;;;3.00;2.80;;;;;;;;;;5048304;28;20445;-73
2023/12/17 13:30:54;;;;;;;3.00;2.80;;;;;;;;;;5042337;28;20431;-72
2023/12/17 13:33:21;;;;;;;3.20;2.83;;;;;;;;;;5040634;28;20417;-73
2023/12/17 13:35:48;;;;;;;3.10;2.80;;;;;;;;;;5048629;28;20413;-73
2023/12/17 13:38:15;;;;;;;2.80;2.60;;;;;;;;;;5033933;28;20431;-74
2023/12/17 13:40:42;;;;;;;3.25;2.95;;;;;;;;;;5048163;28;20413;-73
2023/12/17 13:43:09;;;;;;;3.30;3.00;;;;;;;;;;5048434;28;20417;-74
2023/12/17 13:45:36;;;;;;;3.10;2.80;;;;;;;;;;5047590;28;20429;-73
2023/12/17 13:48:05;;;;;;;3.40;3.10;;;;;;;;;;5032552;28;20434;-74
2023/12/17 13:50:32;;;;;;;3.63;3.33;;;;;;;;;;5033953;28;20842;-74
2023/12/17 13:53:00;;;;;;;3.25;3.00;;;;;;;;;;5038456;28;20444;-74
2023/12/17 13:55:30;;;;;;;3.40;3.10;;;;;;;;;;5045875;28;20441;-74
2023/12/17 13:57:57;;;;;;;3.45;3.15;;;;;;;;;;5035406;28;20427;-73
2023/12/17 14:00:26;;;;;;;3.20;2.90;;;;;;;;;;5037456;28;20433;-73
2023/12/17 14:02:53;;;;;;;3.20;3.00;;;;;;;;;;5036445;28;20434;-75
2023/12/17 14:05:21;;;;;;;3.60;3.30;;;;;;;;;;5037373;28;20441;-73
2023/12/17 14:07:48;;;;;;;3.20;3.00;;;;;;;;;;5032159;28;20425;-75
2023/12/17 14:10:15;;;;;;;3.70;3.40;;;;;;;;;;5038616;28;20588;-74
2023/12/17 14:12:42;;;;;;;3.70;3.40;;;;;;;;;;5046810;28;20924;-74
2023/12/17 14:15:10;;;;;;;3.40;3.10;;;;;;;;;;5047847;28;20410;-74
2023/12/17 14:17:37;;;;;;;3.65;3.35;;;;;;;;;;5033093;28;20508;-73
2023/12/17 14:20:05;;;;;;;3.70;3.40;;;;;;;;;;5036075;28;20426;-72
2023/12/17 14:22:33;;;;;;;4.07;3.78;;;;;;;;;;5035017;28;20438;-73
2023/12/17 14:25:03;;;;;;;4.30;3.90;;;;;;;;;;5035245;28;20445;-73
2023/12/17 14:27:30;;;;;;;4.20;3.78;;;;;;;;;;5043933;28;20514;-72
2023/12/17 14:29:57;;;;;;;4.70;4.00;;;;;;;;;;5045935;28;20939;-72
2023/12/17 14:32:24;;;;;;;3.50;3.20;;;;;;;;;;5042789;28;20428;-73
2023/12/17 14:34:51;;;;;;;4.10;3.80;;;;;;;;;;5036659;28;20812;-73
2023/12/17 14:37:18;;;;;;;3.90;3.60;;;;;;;;;;5035533;28;20438;-73
2023/12/17 14:39:47;;;;;;;4.00;3.70;;;;;;;;;;5039426;28;20446;-73
2023/12/17 14:42:14;;;;;;;3.80;3.50;;;;;;;;;;5044733;28;20459;-73
2023/12/17 14:44:41;;;;;;;4.30;3.90;;;;;;;;;;5044900;28;20864;-72